sensor_id;sensor_type;location;lat;lon;timestamp;P1;durP1;ratioP1;P2;durP2;ratioP2
24407;SDS011;12542;50.924;4.516;2024-02-28T00:01:49;23.55;;;12.30;;
24407;SDS011;12542;50.924;4.516;2024-02-28T00:04:15;17.75;;;10.63;;
24407;SDS011;12542;50.924;4.516;2024-02-28T00:06:41;17.90;;;10.52;;
24407;SDS011;12542;50.924;4.516;2024-02-28T00:09:07;22.05;;;11.25;;
24407;SDS011;12542;50.924;4.516;2024-02-28T00:11:32;20.10;;;10.88;;
24407;SDS011;12542;50.924;4.516;2024-02-28T00:13:58;17.35;;;10.82;;
24407;SDS011;12542;50.924;4.516;2024-02-28T00:16:27;19.58;;;11.68;;
24407;SDS011;12542;50.924;4.516;2024-02-28T00:18:53;23.55;;;10.73;;
24407;SDS011;12542;50.924;4.516;2024-02-28T00:21:18;20.75;;;11.88;;
24407;SDS011;12542;50.924;4.516;2024-02-28T00:23:44;24.67;;;11.45;;
24407;SDS011;12542;50.924;4.516;2024-02-28T00:26:11;19.60;;;10.95;;
24407;SDS011;12542;50.924;4.516;2024-02-28T00:28:37;17.58;;;10.30;;
24407;SDS011;12542;50.924;4.516;2024-02-28T00:31:03;21.08;;;10.75;;
24407;SDS011;12542;50.924;4.516;2024-02-28T00:33:28;19.98;;;10.05;;
24407;SDS011;12542;50.924;4.516;2024-02-28T00:35:54;17.40;;;9.93;;
24407;SDS011;12542;50.924;4.516;2024-02-28T00:38:20;18.00;;;10.48;;
24407;SDS011;12542;50.924;4.516;2024-02-28T00:40:45;23.48;;;10.57;;
24407;SDS011;12542;50.924;4.516;2024-02-28T00:43:11;20.58;;;10.48;;
24407;SDS011;12542;50.924;4.516;2024-02-28T00:45:37;20.33;;;11.35;;
24407;SDS011;12542;50.924;4.516;2024-02-28T00:48:03;15.32;;;9.73;;
24407;SDS011;12542;50.924;4.516;2024-02-28T00:50:29;17.00;;;9.95;;
24407;SDS011;12542;50.924;4.516;2024-02-28T00:52:57;18.90;;;10.25;;
24407;SDS011;12542;50.924;4.516;2024-02-28T00:55:23;15.85;;;9.52;;
24407;SDS011;12542;50.924;4.516;2024-02-28T00:57:48;16.88;;;9.95;;
24407;SDS011;12542;50.924;4.516;2024-02-28T01:00:14;17.75;;;10.15;;
24407;SDS011;12542;50.924;4.516;2024-02-28T01:02:40;17.75;;;11.07;;
24407;SDS011;12542;50.924;4.516;2024-02-28T01:05:08;16.85;;;9.25;;
24407;SDS011;12542;50.924;4.516;2024-02-28T01:07:34;17.30;;;9.63;;
24407;SDS011;12542;50.924;4.516;2024-02-28T01:10:00;15.80;;;10.73;;
24407;SDS011;12542;50.924;4.516;2024-02-28T01:12:26;17.70;;;9.65;;
24407;SDS011;12542;50.924;4.516;2024-02-28T01:14:51;19.63;;;10.43;;
24407;SDS011;12542;50.924;4.516;2024-02-28T01:17:17;15.50;;;9.90;;
24407;SDS011;12542;50.924;4.516;2024-02-28T01:19:43;17.52;;;10.93;;
24407;SDS011;12542;50.924;4.516;2024-02-28T01:22:08;21.10;;;10.80;;
24407;SDS011;12542;50.924;4.516;2024-02-28T01:24:34;17.63;;;10.73;;
24407;SDS011;12542;50.924;4.516;2024-02-28T01:27:00;21.95;;;9.85;;
24407;SDS011;12542;50.924;4.516;2024-02-28T01:29:26;14.40;;;8.63;;
24407;SDS011;12542;50.924;4.516;2024-02-28T01:31:51;15.10;;;9.70;;
24407;SDS011;12542;50.924;4.516;2024-02-28T01:34:17;18.00;;;10.48;;
24407;SDS011;12542;50.924;4.516;2024-02-28T01:36:43;23.23;;;9.35;;
24407;SDS011;12542;50.924;4.516;2024-02-28T01:39:09;14.85;;;9.63;;
24407;SDS011;12542;50.924;4.516;2024-02-28T01:41:34;20.23;;;10.50;;
24407;SDS011;12542;50.924;4.516;2024-02-28T01:44:00;18.48;;;9.80;;
24407;SDS011;12542;50.924;4.516;2024-02-28T01:46:26;16.23;;;9.57;;
24407;SDS011;12542;50.924;4.516;2024-02-28T01:48:55;18.17;;;9.90;;
24407;SDS011;12542;50.924;4.516;2024-02-28T01:51:25;15.23;;;8.90;;
24407;SDS011;12542;50.924;4.516;2024-02-28T01:53:54;16.52;;;8.55;;
24407;SDS011;12542;50.924;4.516;2024-02-28T01:56:20;14.93;;;9.05;;
24407;SDS011;12542;50.924;4.516;2024-02-28T01:58:48;14.55;;;9.35;;
24407;SDS011;12542;50.924;4.516;2024-02-28T02:01:14;17.58;;;9.63;;
24407;SDS011;12542;50.924;4.516;2024-02-28T02:03:41;16.15;;;9.77;;
24407;SDS011;12542;50.924;4.516;2024-02-28T02:06:08;19.70;;;9.35;;
24407;SDS011;12542;50.924;4.516;2024-02-28T02:08:34;14.18;;;8.88;;
24407;SDS011;12542;50.924;4.516;2024-02-28T02:11:01;15.20;;;9.15;;
24407;SDS011;12542;50.924;4.516;2024-02-28T02:13:27;14.88;;;9.80;;
24407;SDS011;12542;50.924;4.516;2024-02-28T02:15:55;20.08;;;10.30;;
24407;SDS011;12542;50.924;4.516;2024-02-28T02:18:21;19.83;;;8.95;;
24407;SDS011;12542;50.924;4.516;2024-02-28T02:20:48;19.77;;;9.10;;
24407;SDS011;12542;50.924;4.516;2024-02-28T02:23:15;19.65;;;10.43;;
24407;SDS011;12542;50.924;4.516;2024-02-28T02:25:45;16.30;;;9.18;;
24407;SDS011;12542;50.924;4.516;2024-02-28T02:28:11;15.07;;;8.65;;
24407;SDS011;12542;50.924;4.516;2024-02-28T02:30:37;19.52;;;9.60;;
24407;SDS011;12542;50.924;4.516;2024-02-28T02:33:04;14.77;;;8.93;;
24407;SDS011;12542;50.924;4.516;2024-02-28T02:35:30;19.70;;;8.88;;
24407;SDS011;12542;50.924;4.516;2024-02-28T02:37:56;16.13;;;9.80;;
24407;SDS011;12542;50.924;4.516;2024-02-28T02:40:22;16.42;;;9.43;;
24407;SDS011;12542;50.924;4.516;2024-02-28T02:42:48;16.48;;;8.68;;
24407;SDS011;12542;50.924;4.516;2024-02-28T02:45:13;17.27;;;9.38;;
24407;SDS011;12542;50.924;4.516;2024-02-28T02:47:39;15.63;;;8.90;;
24407;SDS011;12542;50.924;4.516;2024-02-28T02:50:05;20.17;;;10.65;;
24407;SDS011;12542;50.924;4.516;2024-02-28T02:52:31;26.55;;;12.18;;
24407;SDS011;12542;50.924;4.516;2024-02-28T02:54:57;28.75;;;11.52;;
24407;SDS011;12542;50.924;4.516;2024-02-28T02:57:25;21.52;;;11.15;;
24407;SDS011;12542;50.924;4.516;2024-02-28T02:59:51;21.83;;;11.13;;
24407;SDS011;12542;50.924;4.516;2024-02-28T03:02:16;24.30;;;11.20;;
24407;SDS011;12542;50.924;4.516;2024-02-28T03:04:42;25.88;;;12.30;;
24407;SDS011;12542;50.924;4.516;2024-02-28T03:07:08;22.73;;;10.30;;
24407;SDS011;12542;50.924;4.516;2024-02-28T03:09:33;16.88;;;9.32;;
24407;SDS011;12542;50.924;4.516;2024-02-28T03:11:59;26.77;;;11.55;;
24407;SDS011;12542;50.924;4.516;2024-02-28T03:14:25;20.48;;;9.60;;
24407;SDS011;12542;50.924;4.516;2024-02-28T03:16:52;20.55;;;10.55;;
24407;SDS011;12542;50.924;4.516;2024-02-28T03:19:18;23.10;;;11.20;;
24407;SDS011;12542;50.924;4.516;2024-02-28T03:21:47;19.08;;;9.88;;
24407;SDS011;12542;50.924;4.516;2024-02-28T03:24:13;19.08;;;9.25;;
24407;SDS011;12542;50.924;4.516;2024-02-28T03:26:38;19.40;;;10.20;;
24407;SDS011;12542;50.924;4.516;2024-02-28T03:29:04;20.63;;;9.85;;
24407;SDS011;12542;50.924;4.516;2024-02-28T03:31:30;16.80;;;9.50;;
24407;SDS011;12542;50.924;4.516;2024-02-28T03:33:55;21.02;;;10.90;;
24407;SDS011;12542;50.924;4.516;2024-02-28T03:36:21;27.77;;;10.20;;
24407;SDS011;12542;50.924;4.516;2024-02-28T03:38:47;20.67;;;10.15;;
24407;SDS011;12542;50.924;4.516;2024-02-28T03:41:13;21.58;;;10.63;;
24407;SDS011;12542;50.924;4.516;2024-02-28T03:43:38;19.75;;;10.68;;
24407;SDS011;12542;50.924;4.516;2024-02-28T03:46:04;16.60;;;10.30;;
24407;SDS011;12542;50.924;4.516;2024-02-28T03:48:29;20.52;;;11.07;;
24407;SDS011;12542;50.924;4.516;2024-02-28T03:50:55;19.70;;;10.65;;
24407;SDS011;12542;50.924;4.516;2024-02-28T03:53:21;20.45;;;10.40;;
24407;SDS011;12542;50.924;4.516;2024-02-28T03:55:46;21.90;;;11.43;;
24407;SDS011;12542;50.924;4.516;2024-02-28T03:58:12;24.30;;;10.93;;
24407;SDS011;12542;50.924;4.516;2024-02-28T04:00:38;20.75;;;11.13;;
24407;SDS011;12542;50.924;4.516;2024-02-28T04:03:05;22.88;;;11.50;;
24407;SDS011;12542;50.924;4.516;2024-02-28T04:05:31;21.88;;;11.80;;
24407;SDS011;12542;50.924;4.516;2024-02-28T04:07:57;22.88;;;11.40;;
24407;SDS011;12542;50.924;4.516;2024-02-28T04:10:22;19.65;;;10.82;;
24407;SDS011;12542;50.924;4.516;2024-02-28T04:12:48;22.85;;;11.73;;
24407;SDS011;12542;50.924;4.516;2024-02-28T04:15:16;19.90;;;11.88;;
24407;SDS011;12542;50.924;4.516;2024-02-28T04:17:42;22.80;;;11.88;;
24407;SDS011;12542;50.924;4.516;2024-02-28T04:20:11;19.35;;;11.02;;
24407;SDS011;12542;50.924;4.516;2024-02-28T04:22:37;28.95;;;13.18;;
24407;SDS011;12542;50.924;4.516;2024-02-28T04:25:07;19.92;;;11.55;;
24407;SDS011;12542;50.924;4.516;2024-02-28T04:27:34;26.02;;;12.00;;
24407;SDS011;12542;50.924;4.516;2024-02-28T04:30:00;18.15;;;10.68;;
24407;SDS011;12542;50.924;4.516;2024-02-28T04:32:26;18.25;;;10.77;;
24407;SDS011;12542;50.924;4.516;2024-02-28T04:34:52;22.83;;;11.85;;
24407;SDS011;12542;50.924;4.516;2024-02-28T04:37:17;23.35;;;11.07;;
24407;SDS011;12542;50.924;4.516;2024-02-28T04:39:43;18.20;;;10.70;;
24407;SDS011;12542;50.924;4.516;2024-02-28T04:42:09;22.30;;;11.38;;
24407;SDS011;12542;50.924;4.516;2024-02-28T04:44:34;21.25;;;11.60;;
24407;SDS011;12542;50.924;4.516;2024-02-28T04:47:01;22.48;;;11.45;;
24407;SDS011;12542;50.924;4.516;2024-02-28T04:49:27;22.58;;;11.05;;
24407;SDS011;12542;50.924;4.516;2024-02-28T04:51:53;20.40;;;10.85;;
24407;SDS011;12542;50.924;4.516;2024-02-28T04:54:18;20.95;;;10.52;;
24407;SDS011;12542;50.924;4.516;2024-02-28T04:56:44;18.52;;;10.13;;
24407;SDS011;12542;50.924;4.516;2024-02-28T04:59:11;21.45;;;10.02;;
24407;SDS011;12542;50.924;4.516;2024-02-28T05:01:37;19.35;;;10.85;;
24407;SDS011;12542;50.924;4.516;2024-02-28T05:04:08;20.90;;;10.38;;
24407;SDS011;12542;50.924;4.516;2024-02-28T05:06:35;20.15;;;10.23;;
24407;SDS011;12542;50.924;4.516;2024-02-28T05:09:01;17.00;;;9.85;;
24407;SDS011;12542;50.924;4.516;2024-02-28T05:11:26;24.40;;;11.15;;
24407;SDS011;12542;50.924;4.516;2024-02-28T05:13:52;19.33;;;10.73;;
24407;SDS011;12542;50.924;4.516;2024-02-28T05:16:18;19.85;;;9.98;;
24407;SDS011;12542;50.924;4.516;2024-02-28T05:18:44;24.27;;;10.00;;
24407;SDS011;12542;50.924;4.516;2024-02-28T05:21:10;20.42;;;10.23;;
24407;SDS011;12542;50.924;4.516;2024-02-28T05:23:36;22.58;;;10.50;;
24407;SDS011;12542;50.924;4.516;2024-02-28T05:26:02;19.55;;;10.38;;
24407;SDS011;12542;50.924;4.516;2024-02-28T05:28:35;16.15;;;10.27;;
24407;SDS011;12542;50.924;4.516;2024-02-28T05:33:50;17.77;;;9.00;;
24407;SDS011;12542;50.924;4.516;2024-02-28T05:36:17;18.55;;;10.10;;
24407;SDS011;12542;50.924;4.516;2024-02-28T05:38:44;20.58;;;10.50;;
24407;SDS011;12542;50.924;4.516;2024-02-28T05:41:09;21.75;;;10.57;;
24407;SDS011;12542;50.924;4.516;2024-02-28T05:43:39;23.02;;;10.93;;
24407;SDS011;12542;50.924;4.516;2024-02-28T05:46:05;24.00;;;12.10;;
24407;SDS011;12542;50.924;4.516;2024-02-28T05:48:31;24.17;;;11.05;;
24407;SDS011;12542;50.924;4.516;2024-02-28T05:50:57;23.10;;;11.57;;
24407;SDS011;12542;50.924;4.516;2024-02-28T05:53:22;25.55;;;11.90;;
24407;SDS011;12542;50.924;4.516;2024-02-28T05:55:52;23.85;;;12.63;;
24407;SDS011;12542;50.924;4.516;2024-02-28T05:58:22;26.27;;;13.10;;
24407;SDS011;12542;50.924;4.516;2024-02-28T06:00:51;29.15;;;12.98;;
24407;SDS011;12542;50.924;4.516;2024-02-28T06:03:17;27.63;;;13.35;;
24407;SDS011;12542;50.924;4.516;2024-02-28T06:05:42;23.27;;;12.98;;
24407;SDS011;12542;50.924;4.516;2024-02-28T06:08:08;28.02;;;13.75;;
24407;SDS011;12542;50.924;4.516;2024-02-28T06:10:34;25.33;;;13.23;;
24407;SDS011;12542;50.924;4.516;2024-02-28T06:12:59;24.23;;;14.73;;
24407;SDS011;12542;50.924;4.516;2024-02-28T06:15:25;27.98;;;14.50;;
24407;SDS011;12542;50.924;4.516;2024-02-28T06:17:51;23.75;;;12.45;;
24407;SDS011;12542;50.924;4.516;2024-02-28T06:20:17;28.30;;;14.43;;
24407;SDS011;12542;50.924;4.516;2024-02-28T06:22:43;25.58;;;13.90;;
24407;SDS011;12542;50.924;4.516;2024-02-28T06:25:08;29.23;;;16.25;;
24407;SDS011;12542;50.924;4.516;2024-02-28T06:27:43;30.48;;;15.00;;
24407;SDS011;12542;50.924;4.516;2024-02-28T06:30:09;29.17;;;16.17;;
24407;SDS011;12542;50.924;4.516;2024-02-28T06:32:35;24.80;;;14.43;;
24407;SDS011;12542;50.924;4.516;2024-02-28T06:35:00;25.20;;;14.07;;
24407;SDS011;12542;50.924;4.516;2024-02-28T06:37:26;28.70;;;14.00;;
24407;SDS011;12542;50.924;4.516;2024-02-28T06:39:53;24.45;;;14.02;;
24407;SDS011;12542;50.924;4.516;2024-02-28T06:42:19;25.02;;;14.20;;
24407;SDS011;12542;50.924;4.516;2024-02-28T06:44:44;28.75;;;12.63;;
24407;SDS011;12542;50.924;4.516;2024-02-28T06:47:10;34.03;;;14.25;;
24407;SDS011;12542;50.924;4.516;2024-02-28T06:49:36;28.25;;;13.45;;
24407;SDS011;12542;50.924;4.516;2024-02-28T06:52:01;32.53;;;13.50;;
24407;SDS011;12542;50.924;4.516;2024-02-28T06:54:27;30.67;;;14.10;;
24407;SDS011;12542;50.924;4.516;2024-02-28T06:56:53;27.25;;;13.40;;
24407;SDS011;12542;50.924;4.516;2024-02-28T06:59:20;32.80;;;13.68;;
24407;SDS011;12542;50.924;4.516;2024-02-28T07:01:46;31.40;;;13.38;;
24407;SDS011;12542;50.924;4.516;2024-02-28T07:04:11;30.45;;;13.77;;
24407;SDS011;12542;50.924;4.516;2024-02-28T07:06:37;22.73;;;12.77;;
24407;SDS011;12542;50.924;4.516;2024-02-28T07:09:03;30.90;;;14.07;;
24407;SDS011;12542;50.924;4.516;2024-02-28T07:11:29;29.58;;;14.13;;
24407;SDS011;12542;50.924;4.516;2024-02-28T07:13:55;25.90;;;13.15;;
24407;SDS011;12542;50.924;4.516;2024-02-28T07:16:22;32.80;;;14.38;;
24407;SDS011;12542;50.924;4.516;2024-02-28T07:18:48;28.25;;;13.35;;
24407;SDS011;12542;50.924;4.516;2024-02-28T07:21:14;31.13;;;14.32;;
24407;SDS011;12542;50.924;4.516;2024-02-28T07:23:39;29.05;;;13.88;;
24407;SDS011;12542;50.924;4.516;2024-02-28T07:26:06;28.40;;;13.90;;
24407;SDS011;12542;50.924;4.516;2024-02-28T07:28:32;27.05;;;14.63;;
24407;SDS011;12542;50.924;4.516;2024-02-28T07:30:57;33.10;;;15.00;;
24407;SDS011;12542;50.924;4.516;2024-02-28T07:33:23;27.80;;;14.27;;
24407;SDS011;12542;50.924;4.516;2024-02-28T07:35:51;35.35;;;15.05;;
24407;SDS011;12542;50.924;4.516;2024-02-28T07:38:17;29.25;;;13.85;;
24407;SDS011;12542;50.924;4.516;2024-02-28T07:40:45;32.90;;;14.52;;
24407;SDS011;12542;50.924;4.516;2024-02-28T07:43:13;30.63;;;13.07;;
24407;SDS011;12542;50.924;4.516;2024-02-28T07:45:39;31.90;;;14.73;;
24407;SDS011;12542;50.924;4.516;2024-02-28T07:48:05;31.48;;;14.93;;
24407;SDS011;12542;50.924;4.516;2024-02-28T07:50:31;37.22;;;14.55;;
24407;SDS011;12542;50.924;4.516;2024-02-28T07:52:56;33.40;;;15.75;;
24407;SDS011;12542;50.924;4.516;2024-02-28T07:55:22;37.47;;;15.52;;
24407;SDS011;12542;50.924;4.516;2024-02-28T07:57:54;37.25;;;17.23;;
24407;SDS011;12542;50.924;4.516;2024-02-28T08:00:20;33.15;;;15.82;;
24407;SDS011;12542;50.924;4.516;2024-02-28T08:02:46;37.45;;;16.80;;
24407;SDS011;12542;50.924;4.516;2024-02-28T08:05:12;38.42;;;17.10;;
24407;SDS011;12542;50.924;4.516;2024-02-28T08:07:39;37.38;;;16.27;;
24407;SDS011;12542;50.924;4.516;2024-02-28T08:10:05;39.85;;;16.73;;
24407;SDS011;12542;50.924;4.516;2024-02-28T08:12:31;37.78;;;16.70;;
24407;SDS011;12542;50.924;4.516;2024-02-28T08:14:57;40.83;;;16.83;;
24407;SDS011;12542;50.924;4.516;2024-02-28T08:17:23;40.05;;;17.30;;
24407;SDS011;12542;50.924;4.516;2024-02-28T08:19:49;31.35;;;15.63;;
24407;SDS011;12542;50.924;4.516;2024-02-28T08:22:14;42.90;;;16.48;;
24407;SDS011;12542;50.924;4.516;2024-02-28T08:24:40;36.38;;;17.10;;
24407;SDS011;12542;50.924;4.516;2024-02-28T08:27:06;35.03;;;15.98;;
24407;SDS011;12542;50.924;4.516;2024-02-28T08:29:32;34.08;;;17.77;;
24407;SDS011;12542;50.924;4.516;2024-02-28T08:32:00;32.63;;;16.20;;
24407;SDS011;12542;50.924;4.516;2024-02-28T08:34:26;36.88;;;16.23;;
24407;SDS011;12542;50.924;4.516;2024-02-28T08:36:51;29.23;;;14.95;;
24407;SDS011;12542;50.924;4.516;2024-02-28T08:39:17;33.97;;;15.32;;
24407;SDS011;12542;50.924;4.516;2024-02-28T08:41:43;31.40;;;14.20;;
24407;SDS011;12542;50.924;4.516;2024-02-28T08:44:09;25.85;;;12.88;;
24407;SDS011;12542;50.924;4.516;2024-02-28T08:46:34;31.30;;;13.30;;
24407;SDS011;12542;50.924;4.516;2024-02-28T08:49:00;32.35;;;13.30;;
24407;SDS011;12542;50.924;4.516;2024-02-28T08:51:26;28.77;;;12.60;;
24407;SDS011;12542;50.924;4.516;2024-02-28T08:53:52;26.42;;;12.38;;
24407;SDS011;12542;50.924;4.516;2024-02-28T08:56:20;28.30;;;13.13;;
24407;SDS011;12542;50.924;4.516;2024-02-28T08:58:46;27.92;;;12.32;;
24407;SDS011;12542;50.924;4.516;2024-02-28T09:01:14;24.23;;;11.48;;
24407;SDS011;12542;50.924;4.516;2024-02-28T09:03:40;31.92;;;11.80;;
24407;SDS011;12542;50.924;4.516;2024-02-28T09:06:06;32.08;;;12.90;;
24407;SDS011;12542;50.924;4.516;2024-02-28T09:08:32;33.10;;;13.18;;
24407;SDS011;12542;50.924;4.516;2024-02-28T09:10:57;28.88;;;12.23;;
24407;SDS011;12542;50.924;4.516;2024-02-28T09:13:23;29.90;;;13.65;;
24407;SDS011;12542;50.924;4.516;2024-02-28T09:15:49;26.75;;;11.73;;
24407;SDS011;12542;50.924;4.516;2024-02-28T09:18:16;31.67;;;12.60;;
24407;SDS011;12542;50.924;4.516;2024-02-28T09:20:42;29.52;;;12.10;;
24407;SDS011;12542;50.924;4.516;2024-02-28T09:23:07;26.90;;;11.55;;
24407;SDS011;12542;50.924;4.516;2024-02-28T09:25:33;29.83;;;12.93;;
24407;SDS011;12542;50.924;4.516;2024-02-28T09:28:00;30.77;;;11.82;;
24407;SDS011;12542;50.924;4.516;2024-02-28T09:30:27;32.40;;;14.13;;
24407;SDS011;12542;50.924;4.516;2024-02-28T09:32:52;29.52;;;11.65;;
24407;SDS011;12542;50.924;4.516;2024-02-28T09:35:19;28.52;;;10.98;;
24407;SDS011;12542;50.924;4.516;2024-02-28T09:37:45;37.90;;;13.82;;
24407;SDS011;12542;50.924;4.516;2024-02-28T09:40:14;35.83;;;13.85;;
24407;SDS011;12542;50.924;4.516;2024-02-28T09:42:40;31.67;;;11.65;;
24407;SDS011;12542;50.924;4.516;2024-02-28T09:45:09;33.00;;;12.40;;
24407;SDS011;12542;50.924;4.516;2024-02-28T09:47:37;26.30;;;11.65;;
24407;SDS011;12542;50.924;4.516;2024-02-28T09:50:02;30.23;;;13.02;;
24407;SDS011;12542;50.924;4.516;2024-02-28T09:52:29;32.90;;;14.25;;
24407;SDS011;12542;50.924;4.516;2024-02-28T09:54:55;32.90;;;14.45;;
24407;SDS011;12542;50.924;4.516;2024-02-28T09:57:20;27.92;;;12.93;;
24407;SDS011;12542;50.924;4.516;2024-02-28T09:59:53;31.17;;;13.65;;
24407;SDS011;12542;50.924;4.516;2024-02-28T10:02:21;32.95;;;13.05;;
24407;SDS011;12542;50.924;4.516;2024-02-28T10:04:48;27.85;;;12.70;;
24407;SDS011;12542;50.924;4.516;2024-02-28T10:07:14;30.77;;;12.25;;
24407;SDS011;12542;50.924;4.516;2024-02-28T10:09:41;32.28;;;11.98;;
24407;SDS011;12542;50.924;4.516;2024-02-28T10:12:07;34.63;;;13.85;;
24407;SDS011;12542;50.924;4.516;2024-02-28T10:14:33;34.80;;;14.25;;
24407;SDS011;12542;50.924;4.516;2024-02-28T10:16:59;34.80;;;13.80;;
24407;SDS011;12542;50.924;4.516;2024-02-28T10:19:24;31.25;;;12.73;;
24407;SDS011;12542;50.924;4.516;2024-02-28T10:21:50;32.08;;;13.48;;
24407;SDS011;12542;50.924;4.516;2024-02-28T10:24:16;30.83;;;11.70;;
24407;SDS011;12542;50.924;4.516;2024-02-28T10:26:43;31.25;;;12.77;;
24407;SDS011;12542;50.924;4.516;2024-02-28T10:29:10;31.85;;;13.90;;
24407;SDS011;12542;50.924;4.516;2024-02-28T10:31:36;32.38;;;13.07;;
24407;SDS011;12542;50.924;4.516;2024-02-28T10:34:01;32.90;;;12.48;;
24407;SDS011;12542;50.924;4.516;2024-02-28T10:36:29;32.72;;;12.73;;
24407;SDS011;12542;50.924;4.516;2024-02-28T10:38:57;29.77;;;12.65;;
24407;SDS011;12542;50.924;4.516;2024-02-28T10:41:25;28.80;;;11.07;;
24407;SDS011;12542;50.924;4.516;2024-02-28T10:43:54;27.35;;;11.82;;
24407;SDS011;12542;50.924;4.516;2024-02-28T10:46:20;29.45;;;11.88;;
24407;SDS011;12542;50.924;4.516;2024-02-28T10:48:51;31.70;;;12.32;;
24407;SDS011;12542;50.924;4.516;2024-02-28T10:51:20;32.45;;;12.13;;
24407;SDS011;12542;50.924;4.516;2024-02-28T10:54:04;23.75;;;10.50;;
24407;SDS011;12542;50.924;4.516;2024-02-28T10:56:37;23.60;;;10.85;;
24407;SDS011;12542;50.924;4.516;2024-02-28T10:59:08;31.10;;;10.77;;
24407;SDS011;12542;50.924;4.516;2024-02-28T11:01:35;22.67;;;10.00;;
24407;SDS011;12542;50.924;4.516;2024-02-28T11:04:03;18.80;;;10.30;;
24407;SDS011;12542;50.924;4.516;2024-02-28T11:06:30;24.73;;;10.25;;
24407;SDS011;12542;50.924;4.516;2024-02-28T11:08:58;26.33;;;8.82;;
24407;SDS011;12542;50.924;4.516;2024-02-28T11:11:29;24.77;;;10.40;;
24407;SDS011;12542;50.924;4.516;2024-02-28T11:13:58;20.15;;;9.25;;
24407;SDS011;12542;50.924;4.516;2024-02-28T11:16:27;22.75;;;9.93;;
24407;SDS011;12542;50.924;4.516;2024-02-28T11:18:53;21.17;;;8.38;;
24407;SDS011;12542;50.924;4.516;2024-02-28T11:21:19;23.73;;;8.98;;
24407;SDS011;12542;50.924;4.516;2024-02-28T11:23:47;16.85;;;8.65;;
24407;SDS011;12542;50.924;4.516;2024-02-28T11:26:13;16.75;;;7.72;;
24407;SDS011;12542;50.924;4.516;2024-02-28T11:28:39;21.20;;;8.75;;
24407;SDS011;12542;50.924;4.516;2024-02-28T11:31:05;19.23;;;8.65;;
24407;SDS011;12542;50.924;4.516;2024-02-28T11:33:31;19.65;;;7.80;;
24407;SDS011;12542;50.924;4.516;2024-02-28T11:35:58;17.63;;;7.85;;
24407;SDS011;12542;50.924;4.516;2024-02-28T11:38:27;16.77;;;7.53;;
24407;SDS011;12542;50.924;4.516;2024-02-28T11:40:53;19.63;;;9.18;;
24407;SDS011;12542;50.924;4.516;2024-02-28T11:43:20;14.75;;;7.57;;
24407;SDS011;12542;50.924;4.516;2024-02-28T11:45:46;21.02;;;8.43;;
24407;SDS011;12542;50.924;4.516;2024-02-28T11:48:15;13.55;;;6.57;;
24407;SDS011;12542;50.924;4.516;2024-02-28T11:50:41;16.70;;;7.18;;
24407;SDS011;12542;50.924;4.516;2024-02-28T11:53:07;14.43;;;7.55;;
24407;SDS011;12542;50.924;4.516;2024-02-28T11:55:33;12.20;;;7.03;;
24407;SDS011;12542;50.924;4.516;2024-02-28T11:58:02;19.50;;;7.25;;
24407;SDS011;12542;50.924;4.516;2024-02-28T12:00:32;18.10;;;7.35;;
24407;SDS011;12542;50.924;4.516;2024-02-28T12:03:04;11.95;;;6.40;;
24407;SDS011;12542;50.924;4.516;2024-02-28T12:05:32;12.00;;;5.57;;
24407;SDS011;12542;50.924;4.516;2024-02-28T12:07:58;12.30;;;5.82;;
24407;SDS011;12542;50.924;4.516;2024-02-28T12:10:25;18.30;;;6.28;;
24407;SDS011;12542;50.924;4.516;2024-02-28T12:12:50;11.95;;;5.75;;
24407;SDS011;12542;50.924;4.516;2024-02-28T12:15:16;11.50;;;5.68;;
24407;SDS011;12542;50.924;4.516;2024-02-28T12:17:42;10.60;;;5.60;;
24407;SDS011;12542;50.924;4.516;2024-02-28T12:20:08;9.75;;;4.97;;
24407;SDS011;12542;50.924;4.516;2024-02-28T12:22:34;15.55;;;4.82;;
24407;SDS011;12542;50.924;4.516;2024-02-28T12:25:00;10.60;;;5.47;;
24407;SDS011;12542;50.924;4.516;2024-02-28T12:27:29;12.88;;;5.53;;
24407;SDS011;12542;50.924;4.516;2024-02-28T12:29:56;13.02;;;5.03;;
24407;SDS011;12542;50.924;4.516;2024-02-28T12:32:24;12.32;;;4.57;;
24407;SDS011;12542;50.924;4.516;2024-02-28T12:34:49;8.77;;;4.72;;
24407;SDS011;12542;50.924;4.516;2024-02-28T12:37:15;17.25;;;4.78;;
24407;SDS011;12542;50.924;4.516;2024-02-28T12:39:41;14.27;;;4.70;;
24407;SDS011;12542;50.924;4.516;2024-02-28T12:42:06;10.30;;;4.47;;
24407;SDS011;12542;50.924;4.516;2024-02-28T12:44:33;9.38;;;4.75;;
24407;SDS011;12542;50.924;4.516;2024-02-28T12:46:58;13.60;;;6.63;;
24407;SDS011;12542;50.924;4.516;2024-02-28T12:49:24;10.30;;;6.22;;
24407;SDS011;12542;50.924;4.516;2024-02-28T12:51:50;12.07;;;7.40;;
24407;SDS011;12542;50.924;4.516;2024-02-28T12:54:16;10.38;;;6.07;;
24407;SDS011;12542;50.924;4.516;2024-02-28T12:56:44;11.75;;;6.85;;
24407;SDS011;12542;50.924;4.516;2024-02-28T12:59:11;15.00;;;7.05;;
24407;SDS011;12542;50.924;4.516;2024-02-28T13:01:39;14.10;;;7.20;;
24407;SDS011;12542;50.924;4.516;2024-02-28T13:04:07;16.30;;;6.90;;
24407;SDS011;12542;50.924;4.516;2024-02-28T13:06:36;13.77;;;6.55;;
24407;SDS011;12542;50.924;4.516;2024-02-28T13:09:02;14.23;;;7.45;;
24407;SDS011;12542;50.924;4.516;2024-02-28T13:11:28;13.55;;;5.82;;
24407;SDS011;12542;50.924;4.516;2024-02-28T13:13:53;12.95;;;6.20;;
24407;SDS011;12542;50.924;4.516;2024-02-28T13:16:19;8.20;;;4.50;;
24407;SDS011;12542;50.924;4.516;2024-02-28T13:18:47;9.02;;;4.05;;
24407;SDS011;12542;50.924;4.516;2024-02-28T13:21:12;9.38;;;3.88;;
24407;SDS011;12542;50.924;4.516;2024-02-28T13:23:38;11.48;;;3.97;;
24407;SDS011;12542;50.924;4.516;2024-02-28T13:26:04;7.70;;;4.00;;
24407;SDS011;12542;50.924;4.516;2024-02-28T13:28:30;10.57;;;4.07;;
24407;SDS011;12542;50.924;4.516;2024-02-28T13:30:59;12.40;;;4.43;;
24407;SDS011;12542;50.924;4.516;2024-02-28T13:33:26;8.05;;;3.90;;
24407;SDS011;12542;50.924;4.516;2024-02-28T13:35:52;9.20;;;4.15;;
24407;SDS011;12542;50.924;4.516;2024-02-28T13:38:18;9.93;;;3.85;;
24407;SDS011;12542;50.924;4.516;2024-02-28T13:40:45;6.57;;;3.70;;
24407;SDS011;12542;50.924;4.516;2024-02-28T13:43:11;11.68;;;4.40;;
24407;SDS011;12542;50.924;4.516;2024-02-28T13:45:37;8.10;;;3.63;;
24407;SDS011;12542;50.924;4.516;2024-02-28T13:48:20;13.30;;;4.05;;
24407;SDS011;12542;50.924;4.516;2024-02-28T13:50:49;9.77;;;4.68;;
24407;SDS011;12542;50.924;4.516;2024-02-28T13:53:15;4.70;;;3.70;;
24407;SDS011;12542;50.924;4.516;2024-02-28T13:55:41;6.55;;;3.75;;
24407;SDS011;12542;50.924;4.516;2024-02-28T13:58:13;8.18;;;3.85;;
24407;SDS011;12542;50.924;4.516;2024-02-28T14:00:42;9.40;;;3.67;;
24407;SDS011;12542;50.924;4.516;2024-02-28T14:03:10;8.20;;;3.60;;
24407;SDS011;12542;50.924;4.516;2024-02-28T14:05:36;5.68;;;3.53;;
24407;SDS011;12542;50.924;4.516;2024-02-28T14:08:04;6.95;;;3.42;;
24407;SDS011;12542;50.924;4.516;2024-02-28T14:10:33;7.28;;;3.97;;
24407;SDS011;12542;50.924;4.516;2024-02-28T14:12:59;11.90;;;3.92;;
24407;SDS011;12542;50.924;4.516;2024-02-28T14:15:26;9.23;;;3.38;;
24407;SDS011;12542;50.924;4.516;2024-02-28T14:17:51;9.30;;;3.60;;
24407;SDS011;12542;50.924;4.516;2024-02-28T14:20:18;8.93;;;3.85;;
24407;SDS011;12542;50.924;4.516;2024-02-28T14:22:44;6.15;;;3.70;;
24407;SDS011;12542;50.924;4.516;2024-02-28T14:25:16;7.18;;;3.92;;
24407;SDS011;12542;50.924;4.516;2024-02-28T14:27:46;8.13;;;3.83;;